Time;durP1;ratioP1;P1;durP2;ratioP2;P2;SDS_P1;SDS_P2;PMS_P1;PMS_P2;Temp;Humidity;BMP_temperature;BMP_pressure;BME280_temperature;BME280_humidity;BME280_pressure;Samples;Min_cycle;Max_cycle;Signal;HPM_P1;HPM_P2
2024/01/15 00:02:19;;;;;;;6.40;4.60;;;-2.10;99.90;;;;;;4894983;29;20072;-68
2024/01/15 00:04:44;;;;;;;12.27;3.88;;;-2.00;99.90;;;;;;4910436;29;20048;-68
2024/01/15 00:07:10;;;;;;;6.90;3.95;;;-2.00;99.90;;;;;;4895374;29;20032;-68
2024/01/15 00:09:36;;;;;;;6.60;3.88;;;-2.00;99.90;;;;;;4895975;29;20039;-68
2024/01/15 00:12:02;;;;;;;11.60;5.07;;;-1.90;99.90;;;;;;4894633;29;20043;-68
2024/01/15 00:14:28;;;;;;;7.95;4.72;;;-1.90;99.90;;;;;;4895897;29;20230;-69
2024/01/15 00:16:55;;;;;;;10.30;4.82;;;-1.90;99.90;;;;;;4909577;29;20036;-69
2024/01/15 00:19:22;;;;;;;16.73;4.97;;;-2.00;99.90;;;;;;4910078;29;20698;-69
2024/01/15 00:21:48;;;;;;;7.90;3.67;;;-1.90;99.90;;;;;;4909350;29;20043;-68
2024/01/15 00:24:14;;;;;;;9.50;3.17;;;-1.90;99.90;;;;;;4910133;29;20045;-68
2024/01/15 00:26:40;;;;;;;12.40;4.95;;;-1.90;99.90;;;;;;4910231;29;20461;-68
2024/01/15 00:29:09;;;;;;;17.25;3.83;;;-1.90;99.90;;;;;;4896977;29;20029;-67
2024/01/15 00:31:35;;;;;;;9.27;4.28;;;-1.90;99.90;;;;;;4877419;29;20041;-67
2024/01/15 00:34:02;;;;;;;9.95;2.67;;;-1.90;99.90;;;;;;4909763;29;20033;-67
2024/01/15 00:36:28;;;;;;;5.65;4.13;;;-1.90;99.90;;;;;;4894003;29;20035;-67
2024/01/15 00:38:54;;;;;;;14.07;5.45;;;-1.80;99.90;;;;;;4894239;29;20033;-68
2024/01/15 00:41:20;;;;;;;5.15;3.08;;;-1.90;99.90;;;;;;4909254;29;20504;-68
2024/01/15 00:43:46;;;;;;;16.80;5.20;;;-1.90;99.90;;;;;;4910031;29;20500;-68
2024/01/15 00:46:12;;;;;;;12.93;6.30;;;-1.80;99.90;;;;;;4894101;29;20454;-68
2024/01/15 00:48:38;;;;;;;14.02;3.47;;;-1.80;99.90;;;;;;4898151;29;20021;-68
2024/01/15 00:51:07;;;;;;;6.13;2.83;;;-1.80;99.90;;;;;;4898814;29;20044;-67
2024/01/15 00:53:32;;;;;;;14.10;4.55;;;-1.70;99.90;;;;;;4912865;29;20040;-68
2024/01/15 00:55:58;;;;;;;5.30;3.80;;;-1.80;99.90;;;;;;4898498;29;20025;-68
2024/01/15 00:58:24;;;;;;;6.00;3.85;;;-1.70;99.90;;;;;;4884226;29;20497;-68
2024/01/15 01:00:50;;;;;;;13.60;4.25;;;-1.80;99.90;;;;;;4912973;29;20458;-68
2024/01/15 01:03:16;;;;;;;4.55;2.63;;;-1.70;99.90;;;;;;4898393;29;20029;-68
2024/01/15 01:05:41;;;;;;;6.45;3.80;;;-1.70;99.90;;;;;;4898474;29;20028;-68
2024/01/15 01:08:07;;;;;;;8.55;3.95;;;-1.80;99.90;;;;;;4898077;29;20114;-68
2024/01/15 01:10:33;;;;;;;17.40;4.03;;;-1.70;99.90;;;;;;4896553;29;20032;-68
2024/01/15 01:12:59;;;;;;;15.13;3.90;;;-1.80;99.90;;;;;;4898467;29;20512;-68
2024/01/15 01:15:24;;;;;;;6.55;4.43;;;-1.70;99.90;;;;;;4898364;29;20679;-68
2024/01/15 01:17:50;;;;;;;28.38;4.75;;;-1.70;99.90;;;;;;4898593;29;20032;-68
2024/01/15 01:20:16;;;;;;;12.95;6.28;;;-1.60;99.90;;;;;;4896854;29;20044;-68
2024/01/15 01:22:42;;;;;;;11.88;4.43;;;-1.70;99.90;;;;;;4912579;29;20486;-68
2024/01/15 01:25:08;;;;;;;11.60;4.93;;;-1.70;99.90;;;;;;4896248;29;20048;-68
2024/01/15 01:27:35;;;;;;;9.82;4.65;;;-1.70;99.90;;;;;;4902068;29;20120;-71
2024/01/15 01:30:02;;;;;;;11.73;4.72;;;-1.60;99.90;;;;;;4896326;29;20025;-68
2024/01/15 01:32:28;;;;;;;12.18;4.25;;;-1.60;99.90;;;;;;4908743;29;20135;-68
2024/01/15 01:34:54;;;;;;;13.85;5.38;;;-1.60;99.90;;;;;;4912489;29;20033;-68
2024/01/15 01:37:20;;;;;;;11.45;6.40;;;-1.50;99.90;;;;;;4898196;29;20031;-68
2024/01/15 01:39:46;;;;;;;16.63;5.03;;;-1.50;99.90;;;;;;4898253;29;20020;-68
2024/01/15 01:42:12;;;;;;;11.50;3.30;;;-1.50;99.90;;;;;;4896847;29;20033;-68
2024/01/15 01:44:38;;;;;;;12.90;4.35;;;-1.50;99.90;;;;;;4897041;29;20032;-68
2024/01/15 01:47:05;;;;;;;17.55;6.13;;;-1.50;99.90;;;;;;4897722;29;20580;-68
2024/01/15 01:49:31;;;;;;;10.32;3.85;;;-1.50;99.90;;;;;;4896879;29;20470;-68
2024/01/15 01:52:01;;;;;;;9.55;3.90;;;-1.50;99.90;;;;;;4909681;29;20040;-68
2024/01/15 01:54:31;;;;;;;4.75;3.25;;;-1.50;99.90;;;;;;4912330;29;20040;-69
2024/01/15 01:56:58;;;;;;;10.07;5.45;;;-1.50;99.90;;;;;;4913769;29;20043;-68
2024/01/15 01:59:27;;;;;;;8.38;5.28;;;-1.60;99.90;;;;;;4911140;29;20131;-68
2024/01/15 02:01:54;;;;;;;15.15;5.70;;;-1.60;99.90;;;;;;4911180;29;20136;-68
2024/01/15 02:04:21;;;;;;;7.43;4.00;;;-1.60;99.90;;;;;;4895696;29;20195;-68
2024/01/15 02:06:48;;;;;;;15.25;5.20;;;-1.60;99.90;;;;;;4903336;29;20039;-68
2024/01/15 02:09:17;;;;;;;9.35;6.25;;;-1.60;99.90;;;;;;4894653;29;20046;-68
2024/01/15 02:11:45;;;;;;;15.75;4.15;;;-1.60;99.90;;;;;;4896058;29;20527;-68
2024/01/15 02:14:11;;;;;;;6.07;3.97;;;-1.60;99.90;;;;;;4896356;29;20116;-68
2024/01/15 02:16:37;;;;;;;25.85;6.63;;;-1.60;99.90;;;;;;4909718;29;20119;-68
2024/01/15 02:19:03;;;;;;;10.98;4.57;;;-1.60;99.90;;;;;;4897889;29;20029;-68
2024/01/15 02:21:29;;;;;;;12.32;4.28;;;-1.60;99.90;;;;;;4895831;29;20043;-68
2024/01/15 02:23:55;;;;;;;8.43;5.70;;;-1.60;99.90;;;;;;4910591;29;20621;-68
2024/01/15 02:26:22;;;;;;;8.25;2.55;;;-1.50;99.90;;;;;;4895469;29;20033;-68
2024/01/15 02:28:50;;;;;;;12.13;5.13;;;-1.50;99.90;;;;;;4898891;29;20646;-69
2024/01/15 02:31:16;;;;;;;9.50;5.63;;;-1.50;99.90;;;;;;4895761;29;20028;-68
2024/01/15 02:33:43;;;;;;;11.38;3.72;;;-1.50;99.90;;;;;;4895896;29;20087;-68
2024/01/15 02:36:10;;;;;;;17.17;4.75;;;-1.50;99.90;;;;;;4895323;29;20351;-68
2024/01/15 02:38:36;;;;;;;7.57;4.95;;;-1.50;99.90;;;;;;4895583;29;20025;-68
2024/01/15 02:41:01;;;;;;;12.07;4.63;;;-1.60;99.90;;;;;;4895743;29;20025;-69
2024/01/15 02:43:27;;;;;;;3.13;2.20;;;-1.50;99.90;;;;;;4894190;29;20784;-68
2024/01/15 02:45:53;;;;;;;8.20;4.32;;;-1.60;99.90;;;;;;4896256;29;20036;-68
2024/01/15 02:48:19;;;;;;;6.72;3.30;;;-1.60;99.90;;;;;;4895707;29;20025;-68
2024/01/15 02:50:44;;;;;;;4.65;2.58;;;-1.60;99.90;;;;;;4895512;29;20036;-68
2024/01/15 02:53:10;;;;;;;12.98;5.05;;;-1.60;99.90;;;;;;4896724;29;20061;-68
2024/01/15 02:55:36;;;;;;;3.95;3.08;;;-1.60;99.90;;;;;;4910447;29;20496;-69
2024/01/15 02:58:01;;;;;;;14.13;5.38;;;-1.50;99.90;;;;;;4895604;29;20052;-69
2024/01/15 03:00:27;;;;;;;19.75;7.55;;;-1.40;99.90;;;;;;4896022;29;20036;-68
2024/01/15 03:02:53;;;;;;;9.45;3.65;;;-1.40;99.90;;;;;;4895345;29;20578;-69
2024/01/15 03:05:20;;;;;;;8.73;4.53;;;-1.40;99.90;;;;;;4896166;29;20385;-69
2024/01/15 03:07:45;;;;;;;7.68;4.28;;;-1.40;99.90;;;;;;4895392;29;20115;-68
2024/01/15 03:10:11;;;;;;;11.30;4.43;;;-1.40;99.90;;;;;;4909905;29;20124;-69
2024/01/15 03:12:37;;;;;;;13.38;3.97;;;-1.40;99.90;;;;;;4896486;29;20032;-68
2024/01/15 03:15:03;;;;;;;8.25;4.38;;;-1.50;99.90;;;;;;4895745;29;20060;-68
2024/01/15 03:17:29;;;;;;;8.82;4.68;;;-1.50;99.90;;;;;;4894955;29;20032;-68
2024/01/15 03:19:55;;;;;;;6.18;3.13;;;-1.50;99.90;;;;;;4895584;29;20046;-68
2024/01/15 03:22:20;;;;;;;5.82;2.97;;;-1.50;99.90;;;;;;4895578;29;20080;-68
2024/01/15 03:24:46;;;;;;;7.07;2.72;;;-1.60;99.90;;;;;;4896272;29;20545;-69
2024/01/15 03:27:12;;;;;;;6.30;3.42;;;-1.50;99.90;;;;;;4895156;29;20051;-69
2024/01/15 03:29:39;;;;;;;10.88;4.05;;;-1.50;99.90;;;;;;4896320;29;20032;-68
2024/01/15 03:32:05;;;;;;;8.27;2.80;;;-1.60;99.90;;;;;;4894939;29;20131;-68
2024/01/15 03:34:30;;;;;;;10.00;3.78;;;-1.60;99.90;;;;;;4896233;29;20762;-68
2024/01/15 03:36:56;;;;;;;5.50;2.28;;;-1.60;99.90;;;;;;4894247;29;20123;-68
2024/01/15 03:39:22;;;;;;;12.25;4.47;;;-1.50;99.90;;;;;;4894577;29;20028;-68
2024/01/15 03:41:47;;;;;;;8.40;4.97;;;-1.60;99.90;;;;;;4909408;29;20037;-68
2024/01/15 03:44:13;;;;;;;4.45;2.58;;;-1.50;99.90;;;;;;4895950;29;20520;-68
2024/01/15 03:46:39;;;;;;;10.38;3.75;;;-1.60;99.90;;;;;;4895062;29;20024;-68
2024/01/15 03:49:05;;;;;;;10.27;5.55;;;-1.60;99.90;;;;;;4895760;29;20072;-68
2024/01/15 03:51:30;;;;;;;11.77;3.55;;;-1.50;99.90;;;;;;4894881;29;20112;-68
2024/01/15 03:53:56;;;;;;;4.45;3.28;;;-1.50;99.90;;;;;;4895607;29;20158;-68
2024/01/15 03:56:22;;;;;;;5.13;2.55;;;-1.50;99.90;;;;;;4893956;29;20123;-68
2024/01/15 03:58:47;;;;;;;12.30;4.20;;;-1.50;99.90;;;;;;4894709;29;20029;-68
2024/01/15 04:01:13;;;;;;;7.38;3.83;;;-1.40;99.90;;;;;;4894932;29;20048;-69
2024/01/15 04:03:39;;;;;;;4.88;2.88;;;-1.40;99.90;;;;;;4894362;29;20032;-69
2024/01/15 04:06:05;;;;;;;7.72;3.97;;;-1.40;99.90;;;;;;4895382;29;20030;-69
2024/01/15 04:08:31;;;;;;;12.55;4.85;;;-1.40;99.90;;;;;;4910687;29;20025;-67
2024/01/15 04:10:56;;;;;;;6.28;3.72;;;-1.40;99.90;;;;;;4895204;29;20032;-67
2024/01/15 04:13:22;;;;;;;12.93;4.80;;;-1.40;99.90;;;;;;4894788;29;20025;-67
2024/01/15 04:15:48;;;;;;;8.55;3.22;;;-1.40;99.90;;;;;;4894180;29;20039;-68
2024/01/15 04:18:16;;;;;;;10.05;4.65;;;-1.40;99.90;;;;;;4910186;29;20039;-70
2024/01/15 04:20:42;;;;;;;7.53;3.70;;;-1.50;99.90;;;;;;4893422;29;20040;-68
2024/01/15 04:23:08;;;;;;;8.10;2.70;;;-1.40;99.90;;;;;;4895203;29;20092;-68
2024/01/15 04:25:34;;;;;;;15.35;3.50;;;-1.40;99.90;;;;;;4903213;23;20052;-67
2024/01/15 04:27:59;;;;;;;4.78;3.35;;;-1.40;99.90;;;;;;4881048;29;20072;-67
2024/01/15 04:30:25;;;;;;;10.18;3.95;;;-1.50;99.90;;;;;;4874652;29;20056;-68
2024/01/15 04:32:51;;;;;;;8.60;3.53;;;-1.50;99.90;;;;;;4875191;29;20029;-67
2024/01/15 04:35:16;;;;;;;7.60;4.18;;;-1.40;99.90;;;;;;4876427;29;20048;-67
2024/01/15 04:37:43;;;;;;;8.38;4.50;;;-1.50;99.90;;;;;;4877054;29;20486;-68
2024/01/15 04:40:10;;;;;;;10.23;4.50;;;-1.50;99.90;;;;;;4876434;29;20167;-68
2024/01/15 04:42:36;;;;;;;11.75;3.75;;;-1.40;99.90;;;;;;4876795;29;20036;-68
2024/01/15 04:45:03;;;;;;;8.85;4.25;;;-1.40;99.90;;;;;;4876375;29;20029;-68
2024/01/15 04:47:29;;;;;;;7.30;3.35;;;-1.40;99.90;;;;;;4877130;29;20791;-68
2024/01/15 04:49:54;;;;;;;5.82;2.85;;;-1.30;99.90;;;;;;4876057;29;20037;-68
2024/01/15 04:52:20;;;;;;;9.52;3.83;;;-1.30;99.90;;;;;;4875312;29;20116;-69
2024/01/15 04:54:46;;;;;;;13.80;3.03;;;-1.40;99.90;;;;;;4877575;29;20077;-68
2024/01/15 04:57:12;;;;;;;10.00;4.57;;;-1.30;99.90;;;;;;4879780;29;20036;-68
2024/01/15 04:59:38;;;;;;;10.05;4.47;;;-1.30;99.90;;;;;;4877061;29;20057;-68
2024/01/15 05:02:03;;;;;;;8.07;4.20;;;-1.30;99.90;;;;;;4875713;29;20382;-67
2024/01/15 05:04:29;;;;;;;5.97;2.95;;;-1.40;99.90;;;;;;4877053;29;20047;-68
2024/01/15 05:06:55;;;;;;;4.63;2.10;;;-1.40;99.90;;;;;;4875631;29;20048;-68
2024/01/15 05:09:21;;;;;;;8.73;3.30;;;-1.50;99.90;;;;;;4860047;29;20490;-68
2024/01/15 05:11:47;;;;;;;16.50;4.80;;;-1.50;99.90;;;;;;4875906;29;20037;-68
2024/01/15 05:14:12;;;;;;;8.43;3.47;;;-1.50;99.90;;;;;;4876835;29;20045;-68
2024/01/15 05:16:40;;;;;;;14.52;5.22;;;-1.50;99.90;;;;;;4876572;29;20029;-69
2024/01/15 05:19:08;;;;;;;7.55;3.75;;;-1.50;99.90;;;;;;4876757;29;20029;-68
2024/01/15 05:21:33;;;;;;;8.30;2.83;;;-1.40;99.90;;;;;;4876018;29;20033;-68
2024/01/15 05:23:59;;;;;;;8.68;5.18;;;-1.40;99.90;;;;;;4875807;29;20374;-69
2024/01/15 05:26:25;;;;;;;6.13;3.33;;;-1.40;99.90;;;;;;4877995;29;20554;-68
2024/01/15 05:28:51;;;;;;;8.75;5.30;;;-1.40;99.90;;;;;;4882032;29;20037;-67
2024/01/15 05:31:16;;;;;;;13.15;5.53;;;-1.40;99.90;;;;;;4876507;29;20453;-68
2024/01/15 05:33:42;;;;;;;7.63;3.40;;;-1.40;99.90;;;;;;4876180;29;20029;-68
2024/01/15 05:36:08;;;;;;;5.43;4.13;;;-1.30;99.90;;;;;;4880112;29;20040;-68
2024/01/15 05:38:34;;;;;;;7.07;4.07;;;-1.30;99.90;;;;;;4881640;29;20025;-69
2024/01/15 05:41:00;;;;;;;5.72;3.08;;;-1.40;99.90;;;;;;4879015;29;20040;-67
2024/01/15 05:43:25;;;;;;;4.72;2.55;;;-1.40;99.90;;;;;;4879600;29;20031;-66
2024/01/15 05:45:51;;;;;;;7.88;3.17;;;-1.30;99.90;;;;;;4879129;29;20037;-66
2024/01/15 05:48:17;;;;;;;21.00;5.07;;;-1.40;99.90;;;;;;4879572;29;20029;-66
2024/01/15 05:50:43;;;;;;;7.22;4.15;;;-1.30;99.90;;;;;;4878569;29;20040;-66
2024/01/15 05:53:08;;;;;;;13.77;6.07;;;-1.30;99.90;;;;;;4879471;29;20029;-67
2024/01/15 05:55:37;;;;;;;9.10;4.40;;;-1.30;99.90;;;;;;4878785;29;20500;-67
2024/01/15 05:58:03;;;;;;;7.57;3.50;;;-1.30;99.90;;;;;;4883570;29;20034;-67
2024/01/15 06:00:29;;;;;;;7.22;4.30;;;-1.30;99.90;;;;;;4878803;29;20402;-66
2024/01/15 06:02:54;;;;;;;5.85;3.90;;;-1.30;99.90;;;;;;4879287;29;20041;-67
2024/01/15 06:05:20;;;;;;;1.70;1.33;;;-1.30;99.90;;;;;;4878983;29;20108;-66
2024/01/15 06:07:46;;;;;;;10.07;6.30;;;-1.30;99.90;;;;;;4879592;29;20083;-64
2024/01/15 06:10:12;;;;;;;9.65;3.95;;;-1.30;99.90;;;;;;4878896;29;20422;-64
2024/01/15 06:12:37;;;;;;;9.63;5.70;;;-1.30;99.90;;;;;;4879460;29;20049;-65
2024/01/15 06:15:04;;;;;;;9.30;3.80;;;-1.20;99.90;;;;;;4878988;29;20532;-65
2024/01/15 06:17:29;;;;;;;6.50;4.00;;;-1.20;99.90;;;;;;4879225;29;20116;-65
2024/01/15 06:19:55;;;;;;;6.25;4.22;;;-1.20;99.90;;;;;;4878461;29;20116;-64
2024/01/15 06:22:21;;;;;;;9.65;4.40;;;-1.10;99.90;;;;;;4878594;29;20096;-65
2024/01/15 06:24:47;;;;;;;8.82;4.25;;;-1.10;99.90;;;;;;4879304;29;20033;-64
2024/01/15 06:27:12;;;;;;;4.32;2.47;;;-1.10;99.90;;;;;;4882270;29;20032;-65
2024/01/15 06:29:39;;;;;;;15.32;4.47;;;-1.10;99.90;;;;;;4879109;29;20036;-65
2024/01/15 06:32:05;;;;;;;5.82;2.67;;;-1.10;99.90;;;;;;4876359;29;20119;-66
2024/01/15 06:34:30;;;;;;;13.75;5.40;;;-1.10;99.90;;;;;;4877395;29;20129;-65
2024/01/15 06:36:56;;;;;;;5.70;3.53;;;-1.10;99.90;;;;;;4883479;29;20033;-65
2024/01/15 06:39:22;;;;;;;6.35;4.00;;;-1.10;99.90;;;;;;4878717;29;20178;-65
2024/01/15 06:41:47;;;;;;;7.63;3.80;;;-1.10;99.90;;;;;;4880303;29;20052;-65
2024/01/15 06:44:13;;;;;;;14.98;3.85;;;-1.10;99.90;;;;;;4878485;29;20056;-65
2024/01/15 06:46:43;;;;;;;8.05;3.20;;;-1.10;99.90;;;;;;4880721;29;20033;-65
2024/01/15 06:49:09;;;;;;;10.75;4.45;;;-1.10;99.90;;;;;;4878895;29;20021;-65
2024/01/15 06:51:35;;;;;;;7.78;4.30;;;-1.00;99.90;;;;;;4879448;29;20059;-66
2024/01/15 06:54:01;;;;;;;6.85;4.10;;;-1.00;99.90;;;;;;4878641;29;20036;-65
2024/01/15 06:56:27;;;;;;;4.68;3.72;;;-1.00;99.90;;;;;;4875465;29;20036;-65
2024/01/15 06:58:53;;;;;;;7.00;4.18;;;-1.00;99.90;;;;;;4878751;29;20032;-65
2024/01/15 07:01:19;;;;;;;9.60;4.63;;;-1.00;99.90;;;;;;4878394;29;20032;-65
2024/01/15 07:03:44;;;;;;;10.38;4.53;;;-1.00;99.90;;;;;;4892860;29;20049;-65
2024/01/15 07:06:11;;;;;;;11.50;5.15;;;-0.90;99.90;;;;;;4878817;29;20037;-65
2024/01/15 07:08:38;;;;;;;9.00;3.78;;;-0.90;99.90;;;;;;4878494;29;20021;-65
2024/01/15 07:11:05;;;;;;;6.05;3.15;;;-0.90;99.90;;;;;;4877942;29;20065;-67
2024/01/15 07:13:31;;;;;;;6.15;2.88;;;-0.80;99.90;;;;;;4874257;29;20029;-68
2024/01/15 07:15:56;;;;;;;9.60;4.45;;;-0.80;99.90;;;;;;4877799;29;20062;-68
2024/01/15 07:18:23;;;;;;;9.70;3.47;;;-0.70;99.90;;;;;;4879156;29;20045;-67
2024/01/15 07:20:49;;;;;;;8.02;4.50;;;-0.70;99.90;;;;;;4877515;29;20041;-68
2024/01/15 07:23:15;;;;;;;3.15;2.72;;;-0.70;99.90;;;;;;4877106;29;20085;-68
2024/01/15 07:25:41;;;;;;;9.77;4.18;;;-0.70;99.90;;;;;;4877533;29;20108;-65
2024/01/15 07:28:07;;;;;;;9.73;5.10;;;-0.70;99.90;;;;;;4881174;29;20377;-64
2024/01/15 07:30:33;;;;;;;16.08;6.22;;;-0.80;99.90;;;;;;4878159;29;20109;-64
2024/01/15 07:32:58;;;;;;;9.38;3.03;;;-0.70;99.90;;;;;;4877617;29;20089;-65
2024/01/15 07:35:24;;;;;;;5.57;4.60;;;-0.70;99.90;;;;;;4880708;29;20044;-66
2024/01/15 07:37:50;;;;;;;9.40;4.15;;;-0.70;99.90;;;;;;4885520;29;20041;-65
2024/01/15 07:40:16;;;;;;;9.43;4.65;;;-0.70;99.90;;;;;;4877650;29;20041;-65
2024/01/15 07:42:42;;;;;;;8.00;4.43;;;-0.70;99.90;;;;;;4884502;29;20033;-65
2024/01/15 07:45:11;;;;;;;5.35;3.97;;;-0.60;99.90;;;;;;4877325;29;20332;-65
2024/01/15 07:47:37;;;;;;;6.25;4.55;;;-0.60;99.90;;;;;;4883561;29;20037;-65
2024/01/15 07:50:04;;;;;;;8.90;4.53;;;-0.60;99.90;;;;;;4882379;29;20088;-66
2024/01/15 07:52:30;;;;;;;12.00;5.15;;;-0.60;99.90;;;;;;4882048;29;20040;-66
2024/01/15 07:54:56;;;;;;;10.65;4.95;;;-0.50;99.90;;;;;;4882135;29;20048;-65
2024/01/15 07:57:22;;;;;;;10.90;5.97;;;-0.50;99.90;;;;;;4877659;29;20033;-65
2024/01/15 07:59:48;;;;;;;19.67;7.00;;;-0.50;99.90;;;;;;4877414;29;20044;-65
2024/01/15 08:02:14;;;;;;;10.38;5.32;;;-0.50;99.90;;;;;;4884764;29;20124;-64
2024/01/15 08:04:40;;;;;;;14.75;5.35;;;-0.40;99.90;;;;;;4875781;29;20029;-64
2024/01/15 08:07:07;;;;;;;19.65;4.57;;;-0.40;99.90;;;;;;4889056;29;20066;-64
2024/01/15 08:09:34;;;;;;;17.58;6.03;;;-0.40;99.90;;;;;;4877746;29;20033;-64
2024/01/15 08:12:00;;;;;;;10.70;4.43;;;-0.40;99.90;;;;;;4886044;29;20035;-64
2024/01/15 08:14:25;;;;;;;6.93;3.20;;;-0.30;99.90;;;;;;4880529;29;20111;-65
2024/01/15 08:16:51;;;;;;;15.60;6.93;;;-0.30;99.90;;;;;;4886752;29;20062;-65
2024/01/15 08:19:17;;;;;;;7.10;4.32;;;-0.30;99.90;;;;;;4881590;29;20037;-65
2024/01/15 08:21:43;;;;;;;17.88;4.60;;;-0.30;99.90;;;;;;4884086;29;20073;-63
2024/01/15 08:24:09;;;;;;;8.15;3.50;;;-0.30;99.90;;;;;;4881484;29;20021;-65
2024/01/15 08:26:34;;;;;;;7.88;4.60;;;-0.30;99.90;;;;;;4881597;29;20567;-63
2024/01/15 08:29:00;;;;;;;8.23;4.07;;;-0.30;99.90;;;;;;4883328;29;20043;-64
2024/01/15 08:31:27;;;;;;;11.05;5.32;;;-0.40;99.90;;;;;;4884471;29;20043;-65
2024/01/15 08:33:53;;;;;;;7.85;4.32;;;-0.40;99.90;;;;;;4896375;29;20028;-64
2024/01/15 08:36:19;;;;;;;5.07;2.90;;;-0.30;99.90;;;;;;4884568;29;20561;-64
2024/01/15 08:38:45;;;;;;;12.95;3.28;;;-0.30;99.90;;;;;;4883095;29;20032;-64
2024/01/15 08:41:11;;;;;;;8.95;4.03;;;-0.20;99.90;;;;;;4882382;29;20048;-64
2024/01/15 08:43:36;;;;;;;11.32;3.92;;;-0.10;99.90;;;;;;4882523;29;20537;-65
2024/01/15 08:46:03;;;;;;;8.32;3.20;;;0.00;99.90;;;;;;4875907;29;20768;-64
2024/01/15 08:48:29;;;;;;;11.30;4.43;;;-0.10;99.90;;;;;;4880652;29;20105;-64
2024/01/15 08:50:56;;;;;;;11.05;4.32;;;0.00;99.90;;;;;;4880660;29;20401;-64
2024/01/15 08:53:22;;;;;;;6.40;3.70;;;0.00;99.90;;;;;;4880477;29;20041;-64
2024/01/15 08:55:48;;;;;;;11.75;4.30;;;0.00;99.90;;;;;;4878828;29;20037;-64
2024/01/15 08:58:14;;;;;;;13.35;5.32;;;0.10;99.90;;;;;;4885093;29;20123;-65
2024/01/15 09:00:40;;;;;;;8.20;3.58;;;0.10;99.90;;;;;;4883199;29;20116;-65
2024/01/15 09:03:06;;;;;;;8.20;4.85;;;0.10;99.90;;;;;;4884427;29;21130;-64
2024/01/15 09:05:31;;;;;;;10.13;4.20;;;0.10;99.90;;;;;;4871008;29;20033;-64
2024/01/15 09:07:57;;;;;;;7.00;3.55;;;0.10;99.90;;;;;;4883927;29;20029;-65
2024/01/15 09:10:24;;;;;;;10.93;6.15;;;0.20;99.90;;;;;;4880463;29;20040;-64
2024/01/15 09:12:49;;;;;;;6.05;3.85;;;0.20;99.90;;;;;;4887581;29;20036;-64
2024/01/15 09:15:15;;;;;;;6.63;3.10;;;0.10;99.90;;;;;;4881843;29;20036;-64
2024/01/15 09:17:41;;;;;;;7.43;4.18;;;0.20;99.90;;;;;;4888630;29;20120;-64
2024/01/15 09:20:08;;;;;;;9.15;4.78;;;0.20;99.90;;;;;;4882095;29;20040;-64
2024/01/15 09:22:34;;;;;;;8.30;4.43;;;0.30;99.90;;;;;;4887085;29;20032;-64
2024/01/15 09:25:00;;;;;;;10.20;4.25;;;0.30;99.90;;;;;;4880727;29;20029;-65
2024/01/15 09:27:26;;;;;;;12.80;4.97;;;0.30;99.90;;;;;;4888899;29;20036;-66
2024/01/15 09:29:52;;;;;;;13.82;3.42;;;0.40;99.90;;;;;;4880229;29;20051;-64
2024/01/15 09:32:18;;;;;;;7.60;3.97;;;0.40;99.90;;;;;;4899771;29;20059;-64
2024/01/15 09:34:46;;;;;;;7.13;3.20;;;0.40;99.90;;;;;;4877014;29;20029;-64
2024/01/15 09:37:14;;;;;;;17.63;5.38;;;0.40;99.90;;;;;;4887086;29;20063;-65
2024/01/15 09:39:40;;;;;;;5.28;3.67;;;0.40;99.90;;;;;;4880479;29;20175;-64
2024/01/15 09:42:06;;;;;;;13.20;4.68;;;0.40;99.90;;;;;;4887108;29;20131;-64
2024/01/15 09:44:32;;;;;;;7.30;4.25;;;0.40;99.90;;;;;;4893587;29;20036;-64
2024/01/15 09:46:58;;;;;;;6.60;3.70;;;0.50;99.90;;;;;;4900701;29;20040;-64
2024/01/15 09:49:24;;;;;;;9.57;4.50;;;0.50;99.90;;;;;;4881150;29;20097;-65
2024/01/15 09:51:50;;;;;;;13.38;4.82;;;0.50;99.90;;;;;;4885619;29;20076;-64
2024/01/15 09:54:17;;;;;;;8.63;4.57;;;0.50;99.90;;;;;;4874701;29;20051;-65
2024/01/15 09:56:52;;;;;;;6.28;3.88;;;0.60;99.90;;;;;;4881638;29;20033;-64
2024/01/15 09:59:19;;;;;;;11.60;3.88;;;0.60;99.90;;;;;;4897486;29;20088;-64
2024/01/15 10:01:45;;;;;;;14.48;5.93;;;0.60;99.90;;;;;;4873430;29;20028;-64
2024/01/15 10:04:14;;;;;;;10.15;4.43;;;0.60;99.90;;;;;;4897947;29;20064;-64
2024/01/15 10:06:45;;;;;;;6.93;5.30;;;0.70;99.90;;;;;;4887183;29;20021;-65
2024/01/15 10:09:16;;;;;;;;;;;0.60;99.90;;;;;;4884331;29;20045;-63
2024/01/15 10:11:43;;;;;;;7.60;3.65;;;0.60;99.90;;;;;;4882075;29;19977;-64
2024/01/15 10:14:12;;;;;;;6.93;4.00;;;0.60;99.90;;;;;;4880361;29;20386;-63
2024/01/15 10:16:39;;;;;;;5.32;3.85;;;0.60;99.90;;;;;;4882090;29;20033;-64
2024/01/15 10:19:05;;;;;;;4.95;3.03;;;0.60;99.90;;;;;;4878779;29;20040;-64
2024/01/15 10:21:34;;;;;;;6.97;2.83;;;0.60;99.90;;;;;;4883019;29;20032;-64
2024/01/15 10:24:01;;;;;;;2.78;1.65;;;0.60;99.90;;;;;;4880572;29;20025;-65
2024/01/15 10:26:27;;;;;;;10.07;3.38;;;0.60;99.90;;;;;;4893027;23;20502;-66
2024/01/15 10:28:53;;;;;;;4.78;2.67;;;0.60;99.90;;;;;;4885926;29;20033;-66
2024/01/15 10:31:22;;;;;;;12.23;4.40;;;0.70;99.90;;;;;;4881190;29;20139;-66
2024/01/15 10:33:51;;;;;;;11.63;5.13;;;0.70;99.90;;;;;;4877933;29;20140;-66
2024/01/15 10:36:17;;;;;;;7.55;4.43;;;0.70;99.90;;;;;;4886045;29;20040;-66
2024/01/15 10:38:44;;;;;;;4.20;3.35;;;0.80;99.90;;;;;;4881504;29;20387;-66
2024/01/15 10:41:11;;;;;;;4.35;2.80;;;0.70;99.90;;;;;;4886665;29;20091;-66
2024/01/15 10:43:37;;;;;;;10.68;3.75;;;0.80;99.90;;;;;;4881249;29;20041;-66
2024/01/15 10:46:03;;;;;;;9.27;3.42;;;0.80;99.90;;;;;;4886265;29;20036;-66
2024/01/15 10:48:31;;;;;;;4.57;2.97;;;0.80;99.90;;;;;;4881276;29;20037;-66
2024/01/15 10:51:00;;;;;;;5.85;3.20;;;0.90;99.90;;;;;;4886665;29;20153;-66
2024/01/15 10:53:27;;;;;;;4.78;2.90;;;0.90;99.90;;;;;;4893173;29;20045;-66
2024/01/15 10:55:53;;;;;;;4.30;2.80;;;1.00;99.90;;;;;;4878869;29;20064;-66
2024/01/15 10:58:20;;;;;;;8.55;3.42;;;1.00;99.90;;;;;;4895822;29;20060;-66
2024/01/15 11:00:46;;;;;;;5.50;2.83;;;1.00;99.90;;;;;;4887315;29;20449;-66
2024/01/15 11:03:13;;;;;;;4.20;3.00;;;1.00;99.90;;;;;;4882359;29;20498;-66
2024/01/15 11:05:43;;;;;;;6.80;4.43;;;1.00;99.90;;;;;;4892261;29;20362;-66
2024/01/15 11:08:13;;;;;;;3.33;2.23;;;1.00;99.90;;;;;;4904757;29;20035;-65
2024/01/15 11:10:51;;;;;;;5.53;2.38;;;1.00;99.90;;;;;;4893773;29;20028;-66
2024/01/15 11:13:32;;;;;;;5.50;3.20;;;1.00;99.90;;;;;;4900210;29;20032;-66
2024/01/15 11:16:08;;;;;;;3.28;2.47;;;1.00;99.90;;;;;;4893229;29;20033;-66
2024/01/15 11:19:02;;;;;;;9.25;4.00;;;1.10;99.90;;;;;;4889002;29;20064;-66
2024/01/15 11:21:29;;;;;;;7.53;2.55;;;1.00;99.90;;;;;;4876566;29;20037;-65
2024/01/15 11:23:58;;;;;;;4.28;2.15;;;1.10;99.90;;;;;;4878247;29;20040;-67
2024/01/15 11:26:45;;;;;;;5.07;2.30;;;1.10;99.90;;;;;;4877264;29;20033;-66
2024/01/15 11:29:32;;;;;;;6.57;3.17;;;1.00;99.90;;;;;;4897010;29;20049;-66
2024/01/15 11:32:09;;;;;;;3.65;2.15;;;1.00;99.90;;;;;;4882267;29;20025;-66
2024/01/15 11:35:02;;;;;;;4.40;2.00;;;0.90;99.90;;;;;;4893391;29;20065;-66
2024/01/15 11:37:54;;;;;;;4.75;3.42;;;1.00;99.90;;;;;;4906762;29;20033;-66
2024/01/15 11:40:22;;;;;;;5.00;2.97;;;0.90;99.90;;;;;;4906268;29;20043;-68
2024/01/15 11:42:49;;;;;;;2.15;1.52;;;0.90;99.90;;;;;;4886009;29;20280;-66
2024/01/15 11:45:22;;;;;;;6.30;3.17;;;1.00;99.90;;;;;;4890158;29;20020;-66
2024/01/15 11:48:09;;;;;;;5.13;3.03;;;1.00;99.90;;;;;;4878404;29;20557;-66
2024/01/15 11:50:34;;;;;;;5.30;3.17;;;1.00;99.90;;;;;;4883340;29;20085;-66
2024/01/15 11:53:03;;;;;;;3.50;2.53;;;1.00;99.90;;;;;;4888884;29;20040;-66
2024/01/15 11:55:41;;;;;;;4.30;2.85;;;1.00;99.90;;;;;;4877609;29;20033;-66
2024/01/15 11:58:09;;;;;;;5.53;3.38;;;1.10;99.90;;;;;;4882112;29;20056;-67
2024/01/15 12:00:52;;;;;;;3.80;2.40;;;1.10;99.90;;;;;;4881070;29;20032;-66
2024/01/15 12:03:22;;;;;;;6.65;3.45;;;1.10;99.90;;;;;;4903050;29;20113;-66
2024/01/15 12:05:48;;;;;;;6.88;3.20;;;1.10;99.90;;;;;;4901701;29;20071;-66
2024/01/15 12:08:13;;;;;;;6.57;4.15;;;1.10;99.90;;;;;;4902815;29;20509;-66
2024/01/15 12:10:42;;;;;;;5.97;3.03;;;1.10;99.90;;;;;;4893837;29;20024;-66
2024/01/15 12:13:13;;;;;;;6.45;2.35;;;1.20;99.90;;;;;;4882791;29;20097;-66
2024/01/15 12:15:41;;;;;;;8.52;3.08;;;1.30;99.90;;;;;;4892094;29;20028;-66
2024/01/15 12:18:08;;;;;;;4.85;3.38;;;1.40;99.90;;;;;;4892327;29;20037;-66
2024/01/15 12:20:34;;;;;;;4.80;2.35;;;1.40;99.90;;;;;;4877981;29;20089;-66
2024/01/15 12:23:05;;;;;;;8.93;2.97;;;1.40;99.90;;;;;;4891944;29;20041;-66
2024/01/15 12:25:33;;;;;;;5.70;2.72;;;1.40;99.90;;;;;;4881710;29;20115;-66
2024/01/15 12:28:00;;;;;;;3.95;1.95;;;1.50;99.90;;;;;;4880168;29;20041;-67
2024/01/15 12:30:27;;;;;;;8.10;2.83;;;1.50;99.90;;;;;;4877174;29;20040;-67
2024/01/15 12:32:54;;;;;;;5.57;3.63;;;1.50;99.90;;;;;;4881965;29;20037;-67
2024/01/15 12:35:20;;;;;;;9.20;3.65;;;1.50;99.90;;;;;;4881621;29;20119;-67
2024/01/15 12:37:47;;;;;;;5.32;2.88;;;1.60;99.90;;;;;;4889144;29;20116;-67
2024/01/15 12:40:14;;;;;;;5.35;2.83;;;1.60;99.90;;;;;;4875822;29;20116;-67
2024/01/15 12:42:40;;;;;;;6.00;2.92;;;1.70;99.90;;;;;;4876503;29;20124;-67
2024/01/15 12:45:06;;;;;;;5.43;3.05;;;1.60;99.90;;;;;;4867465;29;20100;-67
2024/01/15 12:47:32;;;;;;;4.05;2.58;;;1.70;99.90;;;;;;4885963;29;20037;-67